createdAt,value
2018-12-06T00:00:50.957Z,59.93
2018-12-06T00:03:22.097Z,60.82
2018-12-06T00:05:57.799Z,60.66
2018-12-06T00:08:27.940Z,60.34
2018-12-06T00:10:58.209Z,60.19
2018-12-06T00:13:29.189Z,59.54
2018-12-06T00:15:59.560Z,60.33
2018-12-06T00:18:29.817Z,59.96
2018-12-06T00:21:00.131Z,60.18
2018-12-06T00:23:30.318Z,60.26
2018-12-06T00:26:02.669Z,60.29
2018-12-06T00:28:33.010Z,60.88
2018-12-06T00:31:03.337Z,60.57
2018-12-06T00:33:34.144Z,60.35
2018-12-06T00:36:06.795Z,60.11
2018-12-06T00:38:36.954Z,60.45
2018-12-06T00:41:07.174Z,60.03
2018-12-06T00:43:38.201Z,60.45
2018-12-06T00:46:08.470Z,60.17
2018-12-06T00:48:38.765Z,59.79
2018-12-06T00:51:09.480Z,59.60
2018-12-06T00:53:39.763Z,59.72
2018-12-06T00:56:11.321Z,59.59
2018-12-06T00:58:42.277Z,59.48
2018-12-06T01:01:14.224Z,59.40
2018-12-06T01:03:45.897Z,60.14
2018-12-06T01:06:16.315Z,59.46
2018-12-06T01:08:46.758Z,59.81
2018-12-06T01:11:17.648Z,60.13
2018-12-06T01:13:50.102Z,59.95
2018-12-06T01:16:21.498Z,59.44
2018-12-06T01:18:54.092Z,59.47
2018-12-06T01:21:24.583Z,59.63
2018-12-06T01:23:56.086Z,59.89
2018-12-06T01:26:26.281Z,59.86
2018-12-06T01:28:57.924Z,59.60
2018-12-06T01:31:29.980Z,59.16
2018-12-06T01:34:01.531Z,60.66
2018-12-06T01:36:33.412Z,59.56
2018-12-06T01:39:05.391Z,59.97
2018-12-06T01:41:35.853Z,60.03
2018-12-06T01:44:06.653Z,59.38
2018-12-06T01:46:37.163Z,59.83
2018-12-06T01:49:08.790Z,59.13
2018-12-06T01:51:40.199Z,59.53
2018-12-06T01:54:12.494Z,59.07
2018-12-06T01:56:43.177Z,58.72
2018-12-06T01:59:14.272Z,59.19
2018-12-06T02:01:44.758Z,58.79
2018-12-06T02:04:15.649Z,58.78
2018-12-06T02:06:46.896Z,58.87
2018-12-06T02:09:17.948Z,59.09
2018-12-06T02:11:48.371Z,58.67
2018-12-06T02:14:20.244Z,59.12
2018-12-06T02:16:51.570Z,58.77
2018-12-06T02:19:23.423Z,59.41
2018-12-06T02:21:55.644Z,58.46
2018-12-06T02:24:26.997Z,58.14
2018-12-06T02:26:58.155Z,58.30
2018-12-06T02:29:33.127Z,59.06
2018-12-06T02:32:04.494Z,57.98
2018-12-06T02:34:37.852Z,59.02
2018-12-06T02:37:08.957Z,58.74
2018-12-06T02:39:42.114Z,58.67
2018-12-06T02:42:13.115Z,58.71
2018-12-06T02:44:44.738Z,58.87
2018-12-06T02:47:16.737Z,58.60
2018-12-06T02:49:53.934Z,58.88
2018-12-06T02:52:25.156Z,58.49
2018-12-06T02:54:55.321Z,58.93
2018-12-06T02:57:27.859Z,58.74
2018-12-06T02:59:59.824Z,59.32
2018-12-06T03:02:30.261Z,58.54
2018-12-06T03:05:01.342Z,58.63
2018-12-06T03:07:32.138Z,58.15
2018-12-06T03:10:03.536Z,58.75
2018-12-06T03:12:35.049Z,59.02
2018-12-06T03:15:06.282Z,58.31
2018-12-06T03:17:36.978Z,57.93
2018-12-06T03:20:08.128Z,58.23
2018-12-06T03:22:41.014Z,58.09
2018-12-06T03:25:12.944Z,58.09
2018-12-06T03:27:44.556Z,58.50
2018-12-06T03:30:14.841Z,57.93
2018-12-06T03:32:46.568Z,58.30
2018-12-06T03:35:17.513Z,58.45
2018-12-06T03:37:48.199Z,58.52
2018-12-06T03:40:18.542Z,58.03
2018-12-06T03:42:48.890Z,59.04
2018-12-06T03:45:20.038Z,59.12
2018-12-06T03:47:51.333Z,59.28
2018-12-06T03:50:22.888Z,59.11
2018-12-06T03:52:55.221Z,58.90
2018-12-06T03:55:26.447Z,59.67
2018-12-06T03:58:01.128Z,58.78
2018-12-06T04:00:33.282Z,58.68
2018-12-06T04:03:04.438Z,58.72
2018-12-06T04:05:35.598Z,59.79
2018-12-06T04:08:09.242Z,58.63
2018-12-06T04:10:40.289Z,58.92
2018-12-06T04:13:13.467Z,59.36
2018-12-06T04:15:44.586Z,59.98
2018-12-06T04:18:15.209Z,59.67
2018-12-06T04:20:46.116Z,59.02
2018-12-06T04:23:16.656Z,59.07
2018-12-06T04:25:47.457Z,59.63
2018-12-06T04:28:18.943Z,59.86
2018-12-06T04:30:51.054Z,59.08
2018-12-06T04:33:25.055Z,59.18
2018-12-06T04:35:55.936Z,59.49
2018-12-06T04:38:27.257Z,59.37
2018-12-06T04:40:58.401Z,59.52
2018-12-06T04:43:29.221Z,59.15
2018-12-06T04:46:01.250Z,59.40
2018-12-06T04:48:32.012Z,59.35
2018-12-06T04:51:05.725Z,58.11
2018-12-06T04:53:36.469Z,58.96
2018-12-06T04:56:07.132Z,58.86
2018-12-06T04:58:38.394Z,58.69
2018-12-06T05:01:10.325Z,59.00
2018-12-06T05:03:42.079Z,58.97
2018-12-06T05:06:12.978Z,58.56
2018-12-06T05:08:46.886Z,58.78
2018-12-06T05:11:17.285Z,58.98
2018-12-06T05:16:49.916Z,58.32
2018-12-06T05:19:21.303Z,58.98
2018-12-06T05:21:51.597Z,58.34
2018-12-06T05:24:22.591Z,58.38
2018-12-06T05:26:52.803Z,58.25
2018-12-06T05:29:25.581Z,57.65
2018-12-06T05:31:55.946Z,57.73
2018-12-06T05:34:27.833Z,58.09
2018-12-06T05:37:00.062Z,57.78
2018-12-06T05:39:31.355Z,56.83
2018-12-06T05:42:02.252Z,57.05
2018-12-06T05:44:32.507Z,57.17
2018-12-06T05:47:02.720Z,57.34
2018-12-06T05:49:35.020Z,57.85
2018-12-06T05:52:05.938Z,58.38
2018-12-06T05:54:36.132Z,56.11
2018-12-06T05:57:06.429Z,58.21
2018-12-06T05:59:36.592Z,57.50
2018-12-06T06:02:06.996Z,57.61
2018-12-06T06:04:37.814Z,57.67
2018-12-06T06:07:08.100Z,57.18
2018-12-06T06:09:38.429Z,57.12
2018-12-06T06:12:14.773Z,57.38
2018-12-06T06:14:45.869Z,57.85
2018-12-06T06:17:16.215Z,57.24
2018-12-06T06:19:46.604Z,57.89
2018-12-06T06:22:18.944Z,56.41
2018-12-06T06:24:50.088Z,56.53
2018-12-06T06:27:20.444Z,56.69
2018-12-06T06:29:51.849Z,56.45
2018-12-06T06:32:22.012Z,56.61
2018-12-06T06:34:52.208Z,56.68
2018-12-06T06:37:22.625Z,56.60
2018-12-06T06:39:54.056Z,56.47
2018-12-06T06:42:24.381Z,56.19
2018-12-06T06:44:55.337Z,55.55
2018-12-06T06:47:25.664Z,55.52
2018-12-06T06:49:55.615Z,56.24
2018-12-06T06:52:25.938Z,54.42
2018-12-06T06:54:56.184Z,54.23
2018-12-06T06:57:28.376Z,52.67
2018-12-06T07:00:00.590Z,49.96
2018-12-06T07:02:30.873Z,48.96
2018-12-06T07:05:02.066Z,47.21
2018-12-06T07:07:32.835Z,46.69
2018-12-06T07:10:04.677Z,46.92
2018-12-06T07:12:34.909Z,46.36
2018-12-06T07:15:05.509Z,44.39
2018-12-06T07:17:36.877Z,42.78
2018-12-06T07:20:08.092Z,43.07
2018-12-06T07:22:38.431Z,43.64
2018-12-06T07:25:09.573Z,41.19
2018-12-06T07:27:39.969Z,38.79
2018-12-06T07:30:12.479Z,39.80
2018-12-06T07:32:44.509Z,42.43
2018-12-06T07:35:16.079Z,43.16
2018-12-06T07:37:48.001Z,44.11
2018-12-06T07:40:19.202Z,45.28
2018-12-06T07:42:49.586Z,45.82
2018-12-06T07:45:22.945Z,48.07
2018-12-06T07:47:53.706Z,47.59
2018-12-06T07:50:25.199Z,48.03
2018-12-06T07:52:57.144Z,48.34
2018-12-06T07:55:28.669Z,48.36
2018-12-06T07:57:59.990Z,47.93
2018-12-06T08:00:31.384Z,47.26
2018-12-06T08:03:03.385Z,47.54
2018-12-06T08:05:33.488Z,47.19
2018-12-06T08:08:04.928Z,45.40
2018-12-06T08:10:36.688Z,44.65
2018-12-06T08:13:06.861Z,41.15
2018-12-06T08:15:38.872Z,37.74
2018-12-06T08:18:10.716Z,34.75
2018-12-06T08:20:41.897Z,31.01
2018-12-06T08:23:17.310Z,28.80
2018-12-06T08:25:48.645Z,27.88
2018-12-06T08:28:23.373Z,29.32
2018-12-06T08:30:55.410Z,31.07
2018-12-06T08:33:26.723Z,31.16
2018-12-06T08:35:57.667Z,29.86
2018-12-06T08:38:27.921Z,32.35
2018-12-06T08:40:58.825Z,31.29
2018-12-06T08:43:31.837Z,30.42
2018-12-06T08:46:06.693Z,28.22
2018-12-06T08:48:37.657Z,27.35
2018-12-06T08:51:11.028Z,27.13
2018-12-06T08:53:42.950Z,29.78
2018-12-06T08:56:16.667Z,29.39
2018-12-06T08:58:49.288Z,29.66
2018-12-06T09:01:20.455Z,31.08
2018-12-06T09:03:52.272Z,30.04
2018-12-06T09:06:22.710Z,29.52
2018-12-06T09:08:54.938Z,30.78
2018-12-06T09:11:26.042Z,31.53
2018-12-06T09:13:56.881Z,31.48
2018-12-06T09:16:31.329Z,30.78
2018-12-06T09:19:02.481Z,32.07
2018-12-06T09:21:33.805Z,32.89
2018-12-06T09:24:04.129Z,34.57
2018-12-06T09:26:35.142Z,35.58
2018-12-06T09:29:05.441Z,37.88
2018-12-06T09:31:35.648Z,38.57
2018-12-06T09:34:08.866Z,40.47
2018-12-06T09:36:40.166Z,40.74
2018-12-06T09:39:10.876Z,41.18
2018-12-06T09:41:41.238Z,40.74
2018-12-06T09:44:11.559Z,41.05
2018-12-06T09:46:43.760Z,41.00
2018-12-06T09:49:16.594Z,39.07
2018-12-06T09:51:48.682Z,36.51
2018-12-06T09:54:22.798Z,34.38
2018-12-06T09:56:56.341Z,31.69
2018-12-06T09:59:26.666Z,29.77
2018-12-06T10:01:56.963Z,27.16
2018-12-06T10:04:29.777Z,24.64
2018-12-06T10:07:02.453Z,22.92
2018-12-06T10:09:34.002Z,21.17
2018-12-06T10:12:06.829Z,18.94
2018-12-06T10:14:38.292Z,18.21
2018-12-06T10:17:15.382Z,18.77
2018-12-06T10:19:46.642Z,17.20
2018-12-06T10:22:17.556Z,16.55
2018-12-06T10:24:47.900Z,16.24
2018-12-06T10:27:18.217Z,16.08
2018-12-06T10:29:49.200Z,14.70
2018-12-06T10:32:19.702Z,14.54
2018-12-06T10:34:53.590Z,15.74
2018-12-06T10:37:23.284Z,16.80
2018-12-06T10:39:53.509Z,15.03
2018-12-06T10:42:25.810Z,15.03
2018-12-06T10:44:56.240Z,15.44
2018-12-06T10:47:29.119Z,14.96
2018-12-06T10:50:01.003Z,14.37
2018-12-06T10:52:31.870Z,14.50
2018-12-06T10:55:03.214Z,14.61
2018-12-06T10:57:34.525Z,14.06
2018-12-06T11:00:07.524Z,15.15
2018-12-06T11:02:44.297Z,15.29
2018-12-06T11:05:16.898Z,15.17
2018-12-06T11:07:47.887Z,15.30
2018-12-06T11:10:18.125Z,15.50
2018-12-06T11:12:49.208Z,16.16
2018-12-06T11:15:20.697Z,16.74
2018-12-06T11:17:50.989Z,15.63
2018-12-06T11:20:21.970Z,15.40
2018-12-06T11:22:54.023Z,14.23
2018-12-06T11:25:25.028Z,15.54
2018-12-06T11:27:58.821Z,15.11
2018-12-06T11:30:29.959Z,13.85
2018-12-06T11:33:02.128Z,13.55
2018-12-06T11:35:33.432Z,13.62
2018-12-06T11:38:04.933Z,13.60
2018-12-06T11:40:35.251Z,14.23
2018-12-06T11:43:05.420Z,15.83
2018-12-06T11:45:36.854Z,15.65
2018-12-06T11:48:06.944Z,16.32
2018-12-06T11:50:38.806Z,17.29
2018-12-06T11:53:11.432Z,19.27
2018-12-06T11:55:45.097Z,20.29
2018-12-06T11:58:15.760Z,22.14
2018-12-06T12:00:45.957Z,24.38
2018-12-06T12:03:17.470Z,25.03
2018-12-06T12:05:58.306Z,26.69
2018-12-06T12:08:23.914Z,27.41
2018-12-06T12:10:54.762Z,28.90
2018-12-06T12:13:25.108Z,29.79
2018-12-06T12:15:55.829Z,30.39
2018-12-06T12:18:27.319Z,31.71
2018-12-06T12:20:59.054Z,34.50
2018-12-06T12:23:29.438Z,33.75
2018-12-06T12:26:00.946Z,34.42
2018-12-06T12:28:31.332Z,34.50
2018-12-06T12:31:01.455Z,35.59
2018-12-06T12:33:36.355Z,35.88
2018-12-06T12:36:11.086Z,37.08
2018-12-06T12:38:41.421Z,38.13
2018-12-06T12:41:12.465Z,38.03
2018-12-06T12:43:46.399Z,38.42
2018-12-06T12:46:17.375Z,38.95
2018-12-06T12:48:49.789Z,39.91
2018-12-06T12:51:20.061Z,39.73
2018-12-06T12:53:51.026Z,39.97
2018-12-06T12:56:23.818Z,40.13
2018-12-06T12:58:54.045Z,40.02
2018-12-06T13:01:26.199Z,40.34
2018-12-06T13:03:57.559Z,40.96
2018-12-06T13:06:27.872Z,41.67
2018-12-06T13:08:58.692Z,40.96
2018-12-06T13:11:29.564Z,41.30
2018-12-06T13:14:00.776Z,41.72
2018-12-06T13:16:31.080Z,42.13
2018-12-06T13:19:03.101Z,42.18
2018-12-06T13:21:34.863Z,42.54
2018-12-06T13:24:05.836Z,42.04
2018-12-06T13:26:36.653Z,42.34
2018-12-06T13:32:08.969Z,43.84
2018-12-06T13:34:39.462Z,43.66
2018-12-06T13:37:09.759Z,43.86
2018-12-06T13:39:40.894Z,44.49
2018-12-06T13:42:11.467Z,44.45
2018-12-06T13:44:41.807Z,44.74
2018-12-06T13:47:13.128Z,44.29
2018-12-06T13:49:44.957Z,45.03
2018-12-06T13:52:17.154Z,44.66
2018-12-06T13:54:52.149Z,44.60
2018-12-06T13:57:23.964Z,44.68
2018-12-06T13:59:55.405Z,45.63
2018-12-06T14:02:26.401Z,45.49
2018-12-06T14:04:59.630Z,45.60
2018-12-06T14:07:31.008Z,46.34
2018-12-06T14:10:05.721Z,46.05
2018-12-06T14:12:35.952Z,46.05
2018-12-06T14:15:08.226Z,46.74
2018-12-06T14:17:39.466Z,46.22
2018-12-06T14:20:10.744Z,47.39
2018-12-06T14:22:44.677Z,47.66
2018-12-06T14:25:16.474Z,47.91
2018-12-06T14:27:47.373Z,48.47
2018-12-06T14:30:18.009Z,49.11
2018-12-06T14:32:48.382Z,48.54
2018-12-06T14:35:19.682Z,47.82
2018-12-06T14:37:52.470Z,48.44
2018-12-06T14:40:22.724Z,48.96
2018-12-06T14:42:54.443Z,49.38
2018-12-06T14:45:26.101Z,50.69
2018-12-06T14:47:57.468Z,50.86
2018-12-06T14:50:27.586Z,51.45
2018-12-06T14:52:58.038Z,52.18
2018-12-06T14:55:29.574Z,51.92
2018-12-06T14:58:03.621Z,51.98
2018-12-06T15:00:33.800Z,52.17
2018-12-06T15:03:03.932Z,52.66
2018-12-06T15:05:35.243Z,53.15
2018-12-06T15:08:06.591Z,53.28
2018-12-06T15:10:36.845Z,52.97
2018-12-06T15:13:07.148Z,53.25
2018-12-06T15:15:38.213Z,53.46
2018-12-06T15:18:08.456Z,53.69
2018-12-06T15:20:40.567Z,53.21
2018-12-06T15:23:12.183Z,52.89
2018-12-06T15:25:43.780Z,53.38
2018-12-06T15:28:14.054Z,53.69
2018-12-06T15:30:44.566Z,54.46
2018-12-06T15:33:14.753Z,55.41
2018-12-06T15:35:45.859Z,55.25
2018-12-06T15:38:17.388Z,55.56
2018-12-06T15:40:49.828Z,56.53
2018-12-06T15:43:20.788Z,57.01
2018-12-06T15:45:51.151Z,57.05
2018-12-06T15:48:21.225Z,57.76
2018-12-06T15:50:52.764Z,57.88
2018-12-06T15:53:25.152Z,58.83
2018-12-06T15:55:56.473Z,59.36
2018-12-06T15:58:30.070Z,58.98
2018-12-06T16:01:00.882Z,59.45
2018-12-06T16:03:31.208Z,59.20
2018-12-06T16:06:02.435Z,59.64
2018-12-06T16:08:35.055Z,59.90
2018-12-06T16:11:05.545Z,59.64
2018-12-06T16:13:36.607Z,60.38
2018-12-06T16:16:07.025Z,60.31
2018-12-06T16:18:37.848Z,60.69
2018-12-06T16:21:08.803Z,60.71
2018-12-06T16:23:41.393Z,61.24
2018-12-06T16:26:11.761Z,61.92
2018-12-06T16:28:52.001Z,61.86
2018-12-06T16:31:23.391Z,61.92
2018-12-06T16:33:54.460Z,61.82
2018-12-06T16:36:26.202Z,62.53
2018-12-06T16:38:57.914Z,61.88
2018-12-06T16:41:29.973Z,62.18
2018-12-06T16:44:04.767Z,62.29
2018-12-06T16:46:38.804Z,62.48
2018-12-06T16:49:11.764Z,63.18
2018-12-06T16:51:53.601Z,63.16
2018-12-06T16:54:27.320Z,62.56
2018-12-06T16:57:07.114Z,63.53
2018-12-06T16:59:41.976Z,62.32
2018-12-06T17:02:16.101Z,61.81
2018-12-06T17:04:52.441Z,61.89
2018-12-06T17:07:23.405Z,60.92
2018-12-06T17:09:53.699Z,61.29
2018-12-06T17:12:24.108Z,60.70
2018-12-06T17:14:55.573Z,60.81
2018-12-06T17:17:27.462Z,60.54
2018-12-06T17:19:57.742Z,61.03
2018-12-06T17:22:28.905Z,61.37
2018-12-06T17:24:59.217Z,60.94
2018-12-06T17:27:30.398Z,61.39
2018-12-06T17:30:00.913Z,62.30
2018-12-06T17:32:31.133Z,62.29
2018-12-06T17:35:01.429Z,61.73
2018-12-06T17:37:31.678Z,61.90
2018-12-06T17:40:02.836Z,61.55
2018-12-06T17:42:33.770Z,61.13
2018-12-06T17:45:05.204Z,61.18
2018-12-06T17:47:38.302Z,61.58
2018-12-06T17:50:10.026Z,62.42
2018-12-06T17:52:40.425Z,62.68
2018-12-06T17:55:11.148Z,63.14
2018-12-06T17:57:41.975Z,63.16
2018-12-06T18:00:12.694Z,63.47
2018-12-06T18:02:43.388Z,63.26
2018-12-06T18:05:15.017Z,63.21
2018-12-06T18:07:45.951Z,63.78
2018-12-06T18:10:16.729Z,63.22
2018-12-06T18:12:48.155Z,63.21
2018-12-06T18:15:18.767Z,62.80
2018-12-06T18:17:49.010Z,63.33
2018-12-06T18:20:19.365Z,62.41
2018-12-06T18:22:49.656Z,62.84
2018-12-06T18:25:19.812Z,62.90
2018-12-06T18:27:50.771Z,63.40
2018-12-06T18:30:21.134Z,63.41
2018-12-06T18:32:54.139Z,63.70
2018-12-06T18:35:25.569Z,64.42
2018-12-06T18:37:56.578Z,64.46
2018-12-06T18:40:26.798Z,65.21
2018-12-06T18:42:57.934Z,65.80
2018-12-06T18:45:28.156Z,65.51
2018-12-06T18:48:00.545Z,65.68
2018-12-06T18:50:31.038Z,66.14
2018-12-06T18:53:01.165Z,66.23
2018-12-06T18:55:32.397Z,66.84
2018-12-06T18:58:02.566Z,66.21
2018-12-06T19:00:33.500Z,66.32
2018-12-06T19:03:04.764Z,66.18
2018-12-06T19:05:36.727Z,66.14
2018-12-06T19:08:08.877Z,65.20
2018-12-06T19:10:40.257Z,64.98
2018-12-06T19:13:11.266Z,65.17
2018-12-06T19:15:42.415Z,65.28
2018-12-06T19:18:13.722Z,64.57
2018-12-06T19:20:44.614Z,64.11
2018-12-06T19:23:17.520Z,64.86
2018-12-06T19:25:48.349Z,64.78
2018-12-06T19:28:19.644Z,64.36
2018-12-06T19:30:50.298Z,65.34
2018-12-06T19:33:21.726Z,64.92
2018-12-06T19:35:52.958Z,65.05
2018-12-06T19:38:27.823Z,65.38
2018-12-06T19:41:09.982Z,65.53
2018-12-06T19:43:40.593Z,65.93
2018-12-06T19:46:15.756Z,65.11
2018-12-06T19:48:46.511Z,65.03
2018-12-06T19:51:16.773Z,65.13
2018-12-06T19:53:47.040Z,65.37
2018-12-06T19:56:17.327Z,65.58
2018-12-06T19:58:47.653Z,65.53
2018-12-06T20:01:17.826Z,65.37
2018-12-06T20:03:48.077Z,65.85
2018-12-06T20:06:18.378Z,65.95
2018-12-06T20:08:48.685Z,65.42
2018-12-06T20:11:19.044Z,66.04
2018-12-06T20:13:49.170Z,65.85
2018-12-06T20:16:19.611Z,66.11
2018-12-06T20:18:49.894Z,65.97
2018-12-06T20:21:20.294Z,65.46
2018-12-06T20:23:50.740Z,65.84
2018-12-06T20:26:21.036Z,65.85
2018-12-06T20:28:51.286Z,66.00
2018-12-06T20:31:21.463Z,66.74
2018-12-06T20:33:51.977Z,66.77
2018-12-06T20:36:22.482Z,67.02
2018-12-06T20:38:52.706Z,66.98
2018-12-06T20:41:22.984Z,67.00
2018-12-06T20:43:53.210Z,67.34
2018-12-06T20:46:23.721Z,67.21
2018-12-06T20:48:54.166Z,67.32
2018-12-06T20:51:24.395Z,67.86
2018-12-06T20:53:54.779Z,67.61
2018-12-06T20:56:24.984Z,67.36
2018-12-06T20:58:55.123Z,66.55
2018-12-06T21:01:25.990Z,66.23
2018-12-06T21:03:56.146Z,66.88
2018-12-06T21:06:26.492Z,66.06
2018-12-06T21:08:56.822Z,66.08
2018-12-06T21:11:27.088Z,67.31
2018-12-06T21:13:57.281Z,66.39
2018-12-06T21:16:27.553Z,66.93
2018-12-06T21:18:57.789Z,67.36
2018-12-06T21:21:28.121Z,66.60
2018-12-06T21:23:58.329Z,66.54
2018-12-06T21:26:28.583Z,66.68
2018-12-06T21:28:58.738Z,66.80
2018-12-06T21:31:29.092Z,66.65
2018-12-06T21:33:59.372Z,67.14
2018-12-06T21:36:29.526Z,66.67
2018-12-06T21:38:59.855Z,66.89
2018-12-06T21:41:30.245Z,66.82
2018-12-06T21:44:00.458Z,66.48
2018-12-06T21:46:30.687Z,66.35
2018-12-06T21:49:01.026Z,66.41
2018-12-06T21:51:31.247Z,65.97
2018-12-06T21:54:01.486Z,66.51
2018-12-06T21:56:31.692Z,66.16
2018-12-06T21:59:01.914Z,66.82
2018-12-06T22:01:32.250Z,66.89
2018-12-06T22:04:02.450Z,66.44
2018-12-06T22:06:32.642Z,66.93
2018-12-06T22:09:04.243Z,66.43
2018-12-06T22:11:34.497Z,65.88
2018-12-06T22:14:05.127Z,65.75
2018-12-06T22:16:35.320Z,66.81
2018-12-06T22:19:05.527Z,66.95
2018-12-06T22:21:35.745Z,66.43
2018-12-06T22:24:06.016Z,66.93
2018-12-06T22:26:36.279Z,66.17
2018-12-06T22:29:06.477Z,66.74
2018-12-06T22:31:36.677Z,67.31
2018-12-06T22:34:07.143Z,67.10
2018-12-06T22:36:37.679Z,66.79
2018-12-06T22:39:08.565Z,66.85
2018-12-06T22:41:38.974Z,66.57
2018-12-06T22:44:09.351Z,66.50
2018-12-06T22:46:39.737Z,66.26
2018-12-06T22:49:11.540Z,66.88
2018-12-06T22:51:42.128Z,66.54
2018-12-06T22:54:12.993Z,66.39
2018-12-06T22:56:43.263Z,65.71
2018-12-06T22:59:13.989Z,65.25
2018-12-06T23:01:44.929Z,65.34
2018-12-06T23:04:15.191Z,66.01
2018-12-06T23:06:45.462Z,66.15
2018-12-06T23:09:15.807Z,65.44
2018-12-06T23:11:46.038Z,65.93
2018-12-06T23:14:16.329Z,65.56
2018-12-06T23:16:46.415Z,66.09
2018-12-06T23:19:16.509Z,66.45
2018-12-06T23:21:47.356Z,66.52
2018-12-06T23:24:17.614Z,67.75
2018-12-06T23:26:47.835Z,67.84
2018-12-06T23:29:18.062Z,67.53
2018-12-06T23:31:48.314Z,66.33
2018-12-06T23:34:18.403Z,66.72
2018-12-06T23:36:48.539Z,66.24
2018-12-06T23:39:18.661Z,65.67
2018-12-06T23:41:48.857Z,66.03
2018-12-06T23:44:19.144Z,66.62
2018-12-06T23:46:49.398Z,66.28
2018-12-06T23:49:19.681Z,65.51
2018-12-06T23:51:49.912Z,65.73
2018-12-06T23:54:20.218Z,65.96
2018-12-06T23:56:51.602Z,66.52
2018-12-06T23:59:21.826Z,66.26
